Latest Weather Observations for Pound Creek

IDV60801

Issued at 4:05 pm EDT Saturday 29 November 2014 (issued every 30 minutes, with the page automatically refreshed every 10 minutes)

About weather observations | Map of weather stations | Latest weather observations for VIC | Other Formats
Station Details ID: 085099 Name: POUND CREEK Lat: -38.63 Lon: 145.81 Height: 3.0 m
Data from the previous 72 hours. | See also: Recent months at Pound Creek
Date/Time
EDT
Temp
°C
App
Temp
°C
Dew
Point
Rel
Hum
%
Delta-T
°C
Wind Press
QNH
hPa
Press
MSL
hPa
Rain
since 9 am
mm
Dir
 
Spd
km/h
Gust
km/h
Spd
kts
Gust
kts
29/04:00pm 22.8 19.5 11.5 49 6.3 E 20 30 11 16 1013.2 1013.2 0.0
29/03:30pm 22.7 20.1 14.8 61 4.7 ESE 22 30 12 16 1013.2 1013.2 0.0
29/03:00pm 22.8 20.7 15.1 62 4.6 ESE 20 26 11 14 1013.4 1013.4 0.0
29/02:30pm 22.9 21.3 16.0 65 4.2 ESE 19 26 10 14 1013.8 1013.8 0.0
29/02:00pm 23.2 23.5 17.0 68 3.8 E 11 17 6 9 1014.1 1014.1 0.0
29/01:30pm 21.4 20.2 17.0 76 2.7 SSW 19 22 10 12 1014.6 1014.6 0.0
29/01:00pm 22.2 22.5 16.9 72 3.2 SSE 11 20 6 11 1014.9 1014.9 0.0
29/12:30pm 22.0 21.7 14.4 62 4.5 ENE 9 13 5 7 1015.0 1015.0 0.0
29/12:00pm 21.6 21.8 14.7 65 4.1 E 7 15 4 8 1015.7 1015.7 0.0
29/11:30am 19.9 19.4 12.7 63 4.1 E 7 13 4 7 1016.1 1016.1 0.0
29/11:00am 19.7 19.4 13.4 67 3.6 ENE 7 17 4 9 1016.5 1016.5 0.0
29/10:30am 18.3 17.7 13.4 73 2.8 ENE 9 15 5 8 1017.0 1017.0 0.0
29/10:00am 16.2 15.4 12.9 81 1.8 NE 9 19 5 10 1017.5 1017.5 0.0
29/09:30am 14.9 14.2 13.3 90 0.9 NE 9 15 5 8 1017.7 1017.7 0.0
29/09:00am 13.5 12.0 13.2 98 0.2 NNE 13 19 7 10 1018.0 1018.0 0.0
29/08:30am 12.3 11.2 12.1 99 0.1 NE 9 17 5 9 1018.2 1018.2 0.0
29/08:00am 11.8 11.5 11.6 99 0.1 NE 4 6 2 3 1018.3 1018.3 0.0
29/07:30am 10.9 10.0 10.7 99 0.1 N 6 9 3 5 1018.2 1018.2 0.0
29/07:00am 10.0 8.7 9.9 99 0.1 N 7 7 4 4 1018.3 1018.3 0.0
29/06:30am 9.1 7.7 9.0 99 0.0 N 6 9 3 5 1018.2 1018.2 0.0
29/06:00am 8.3 6.7 8.2 99 0.0 N 6 6 3 3 1018.0 1018.0 0.0
29/05:30am 7.5 5.8 7.4 99 0.0 N 6 7 3 4 1017.8 1017.8 0.0
29/05:00am 7.1 5.3 7.0 99 0.0 N 6 7 3 4 1017.5 1017.5 0.0
29/04:30am 6.6 4.7 6.5 99 0.0 N 6 7 3 4 1017.3 1017.3 0.0
29/04:00am 6.3 4.2 6.0 98 0.1 N 6 7 3 4 1017.5 1017.5 0.0
29/03:30am 6.6 5.8 6.3 98 0.1 CALM 0 2 0 1 1017.6 1017.6 0.0
29/03:00am 6.9 5.4 6.6 98 0.1 NNW 4 6 2 3 1017.6 1017.6 0.0
29/02:30am 6.9 5.4 6.6 98 0.1 NNW 4 6 2 3 1017.9 1017.9 0.0
29/02:00am 6.5 5.6 6.1 97 0.2 CALM 0 0 0 0 1018.0 1018.0 0.0
29/01:30am 7.0 6.2 6.6 97 0.2 CALM 0 2 0 1 1018.2 1018.2 0.0
29/01:00am 8.1 6.8 7.7 97 0.2 N 4 7 2 4 1018.8 1018.8 0.0
29/12:30am 8.2 7.3 7.8 97 0.2 N 2 4 1 2 1019.2 1019.2 0.0
29/12:00am 8.8 8.4 8.2 96 0.3 CALM 0 0 0 0 1019.5 1019.5 0.0
 
Date/Time
EDT
Temp
°C
App
Temp
°C
Dew
Point
Rel
Hum
%
Delta-T
°C
Wind Press
QNH
hPa
Press
MSL
hPa
Rain
since 9 am
mm
Dir
 
Spd
km/h
Gust
km/h
Spd
kts
Gust
kts
28/11:30pm 8.8 8.4 8.2 96 0.3 CALM 0 0 0 0 1019.8 1019.8 0.0
28/11:00pm 9.8 9.6 9.0 95 0.4 CALM 0 0 0 0 1020.3 1020.3 0.0
28/10:30pm 9.1 8.6 8.0 93 0.5 CALM 0 0 0 0 1020.7 1020.7 0.0
28/10:00pm 11.1 10.8 10.0 93 0.6 E 2 4 1 2 1020.7 1020.7 0.0
28/09:30pm 11.5 11.1 9.9 90 0.8 ESE 2 4 1 2 1020.6 1020.6 0.0
28/09:00pm 11.3 10.0 9.2 87 1.0 SE 6 9 3 5 1020.6 1020.6 0.0
28/08:30pm 12.8 11.2 10.3 85 1.3 SSE 9 13 5 7 1020.6 1020.6 0.0
28/08:00pm 13.8 11.7 11.0 83 1.5 S 13 19 7 10 1020.6 1020.6 0.0
28/07:30pm 14.5 12.1 11.3 81 1.7 S 15 22 8 12 1020.6 1020.6 0.0
28/07:00pm 15.1 12.3 11.5 79 1.9 S 17 24 9 13 1020.4 1020.4 0.0
28/06:30pm 15.5 12.7 11.3 76 2.3 S 17 22 9 12 1020.3 1020.3 0.0
28/06:00pm 16.0 13.6 11.4 74 2.5 SSW 15 20 8 11 1020.1 1020.1 0.0
28/05:30pm 16.4 14.5 11.8 74 2.5 SSW 13 17 7 9 1020.1 1020.1 0.0
28/05:00pm 16.2 14.2 11.4 73 2.6 SSW 13 19 7 10 1020.2 1020.2 0.0
28/04:30pm 16.6 14.7 11.7 73 2.7 SSW 13 19 7 10 1020.3 1020.3 0.0
28/04:00pm 16.6 14.5 11.3 71 2.8 SSW 13 19 7 10 1020.6 1020.6 0.0
28/03:30pm 16.5 14.5 11.4 72 2.8 SSW 13 19 7 10 1021.0 1021.0 0.0
28/03:00pm 16.9 15.5 12.2 74 2.6 SSW 11 17 6 9 1021.3 1021.3 0.0
28/02:30pm 16.4 14.0 11.3 72 2.7 SSW 15 22 8 12 1021.5 1021.5 0.0
28/02:00pm 16.1 13.3 11.3 73 2.6 SSW 17 24 9 13 1022.1 1022.1 0.0
28/01:30pm 16.8 14.2 11.9 73 2.7 SSW 17 24 9 13 1022.4 1022.4 0.0
28/01:00pm 16.6 13.5 11.7 73 2.7 SW 19 26 10 14 1022.6 1022.6 0.0
28/12:30pm 16.8 13.9 12.3 75 2.5 SSW 19 24 10 13 1022.8 1022.8 0.0
28/12:00pm 16.4 13.3 11.6 73 2.6 SW 19 26 10 14 1023.0 1023.0 0.0
28/11:30am 17.4 16.3 13.1 76 2.4 SW 11 19 6 10 1023.1 1023.1 0.0
28/11:00am 15.2 13.3 10.6 74 2.4 SW 11 17 6 9 1023.4 1023.4 0.0
28/10:30am 15.6 13.8 11.0 74 2.5 W 11 15 6 8 1023.7 1023.7 0.0
28/10:00am 15.0 13.9 10.8 76 2.2 WNW 7 11 4 6 1023.9 1023.9 0.0
28/09:30am 14.8 13.7 10.8 77 2.1 NW 7 15 4 8 1023.8 1023.8 0.0
28/09:00am 14.2 13.4 11.2 82 1.6 NW 6 9 3 5 1024.0 1024.0 0.0
28/08:30am 12.8 11.8 11.0 89 0.9 N 7 11 4 6 1023.9 1023.9 0.0
28/08:00am 12.2 11.7 11.9 98 0.2 N 6 9 3 5 1024.0 1024.0 0.0
28/07:30am 11.2 11.5 11.0 99 0.1 CALM 0 0 0 0 1024.1 1024.1 0.0
28/07:00am 7.1 5.3 7.0 99 0.0 N 6 7 3 4 1023.8 1023.8 0.0
28/06:30am 4.8 2.9 4.7 99 0.0 N 4 6 2 3 1023.4 1023.4 0.0
28/06:00am 4.0 2.7 3.9 99 0.0 CALM 0 0 0 0 1023.3 1023.3 0.0
28/05:30am 3.5 2.1 3.4 99 0.0 CALM 0 0 0 0 1023.1 1023.1 0.0
28/05:00am 4.8 3.6 4.5 98 0.1 CALM 0 2 0 1 1022.6 1022.6 0.0
28/04:30am 5.1 2.6 5.0 99 0.0 N 7 9 4 5 1022.5 1022.5 0.0
28/04:00am 3.8 2.4 3.4 97 0.2 CALM 0 0 0 0 1022.6 1022.6 0.0
28/03:30am 5.4 4.3 5.0 97 0.2 CALM 0 0 0 0 1022.6 1022.6 0.0
28/03:00am 5.6 4.5 5.2 97 0.2 CALM 0 0 0 0 1023.0 1023.0 0.0
28/02:30am 6.2 4.1 5.8 97 0.2 NNE 6 7 3 4 1023.1 1023.1 0.0
28/02:00am 6.4 4.7 5.8 96 0.3 NNE 4 6 2 3 1023.1 1023.1 0.0
28/01:30am 6.8 5.5 6.2 96 0.3 NNE 2 7 1 4 1023.5 1023.5 0.0
28/01:00am 7.6 6.5 6.9 95 0.3 NE 2 6 1 3 1023.7 1023.7 0.0
28/12:30am 8.8 7.1 8.4 97 0.2 N 7 11 4 6 1024.3 1024.3 0.0
28/12:00am 8.5 6.7 8.1 97 0.2 N 7 13 4 7 1024.3 1024.3 0.0
 
Date/Time
EDT
Temp
°C
App
Temp
°C
Dew
Point
Rel
Hum
%
Delta-T
°C
Wind Press
QNH
hPa
Press
MSL
hPa
Rain
since 9 am
mm
Dir
 
Spd
km/h
Gust
km/h
Spd
kts
Gust
kts
27/11:30pm 6.2 4.1 5.6 96 0.3 N 6 9 3 5 1024.4 1024.4 0.0
27/11:00pm 7.7 5.8 6.8 94 0.4 N 6 7 3 4 1024.6 1024.6 0.0
27/10:30pm 7.3 5.1 6.2 93 0.5 N 7 9 4 5 1024.7 1024.7 0.0
27/10:00pm 8.5 7.8 7.0 90 0.7 CALM 0 0 0 0 1024.7 1024.7 0.0
27/09:30pm 9.5 7.8 7.4 87 1.0 SSW 6 9 3 5 1024.7 1024.7 0.0
27/09:00pm 10.5 8.7 8.1 85 1.2 SSW 7 9 4 5 1024.7 1024.7 0.0
27/08:30pm 11.2 9.4 8.1 81 1.5 SSW 7 11 4 6 1024.7 1024.7 0.0
27/08:00pm 12.5 10.6 9.0 79 1.7 SSW 9 13 5 7 1024.7 1024.7 0.0
27/07:30pm 13.6 11.4 9.3 75 2.2 SSW 11 15 6 8 1024.7 1024.7 0.0
27/07:00pm 14.1 11.9 9.5 74 2.3 SSW 11 15 6 8 1024.7 1024.7 0.0
27/06:30pm 14.3 12.0 9.1 71 2.6 SW 11 15 6 8 1024.7 1024.7 0.0
27/06:00pm 14.5 11.9 9.5 72 2.6 SSW 13 24 7 13 1024.7 1024.7 0.0
27/05:30pm 15.0 11.8 10.0 72 2.6 SSW 17 22 9 12 1024.7 1024.7 0.0
27/05:00pm 14.7 11.6 8.9 68 2.9 SSW 15 24 8 13 1024.8 1024.8 0.0
27/04:30pm 15.3 12.2 10.3 72 2.6 S 17 24 9 13 1024.9 1024.9 0.0
27/04:00pm 14.9 12.0 9.7 71 2.7 SSW 15 24 8 13 1025.3 1025.3 0.0
27/03:30pm 15.1 11.4 9.5 69 2.9 SSW 19 26 10 14 1025.3 1025.3 0.0
27/03:00pm 15.7 13.0 10.2 70 2.9 SSW 15 32 8 17 1025.3 1025.3 0.0
27/02:30pm 15.0 11.9 8.9 67 3.1 SSW 15 22 8 12 1025.4 1025.4 0.0
27/02:00pm 15.4 12.8 9.5 68 3.0 S 13 22 7 12 1025.7 1025.7 0.0
27/01:30pm 15.7 13.3 10.0 69 3.0 S 13 24 7 13 1025.9 1025.9 0.0
27/01:00pm 15.3 11.9 9.0 66 3.2 SSW 17 28 9 15 1026.0 1026.0 0.0
27/12:30pm 15.4 12.5 9.5 68 3.0 SSW 15 24 8 13 1026.0 1026.0 0.0
27/12:00pm 14.9 11.3 8.4 65 3.3 S 17 24 9 13 1026.1 1026.1 0.0
27/11:30am 15.1 12.8 9.0 67 3.1 S 11 15 6 8 1026.3 1026.3 0.0
27/11:00am 14.7 10.8 8.6 67 3.1 SW 19 24 10 13 1026.5 1026.5 0.0
27/10:30am 14.3 10.8 8.7 69 2.8 SSW 17 24 9 13 1026.4 1026.4 0.0
27/10:00am 14.3 11.1 8.5 68 2.9 SSW 15 22 8 12 1026.4 1026.4 0.0
27/09:30am 13.6 10.6 7.8 68 2.9 SW 13 19 7 10 1026.3 1026.3 0.0
27/09:00am 13.6 10.8 8.4 71 2.6 SW 13 22 7 12 1026.2 1026.2 0.8
27/08:30am 13.4 10.0 7.8 69 2.8 SSW 15 20 8 11 1026.1 1026.1 -
27/08:00am 12.9 9.9 7.6 70 2.6 SSW 13 19 7 10 1026.0 1026.0 -
27/07:30am 12.8 10.1 7.5 70 2.6 SSW 11 17 6 9 1025.4 1025.4 -
27/07:00am 12.4 9.3 7.3 71 2.5 S 13 19 7 10 1025.3 1025.3 -
27/06:30am 12.3 9.9 7.2 71 2.5 SSW 9 17 5 9 1024.9 1024.9 -
27/06:00am 12.3 8.8 7.4 72 2.4 S 15 22 8 12 1024.6 1024.6 -
27/05:30am 12.2 9.1 7.1 71 2.5 S 13 19 7 10 1024.2 1024.2 -
27/05:00am 12.4 9.4 7.5 72 2.4 SSW 13 17 7 9 1023.8 1023.8 -
27/04:30am 12.4 8.8 6.9 69 2.6 SSW 15 24 8 13 1023.6 1023.6 -
27/04:00am 12.6 9.0 6.6 67 2.8 SSW 15 24 8 13 1023.6 1023.6 -
27/03:30am 12.7 8.9 7.4 70 2.6 SW 17 24 9 13 1023.6 1023.6 -
27/03:00am 12.7 9.2 7.4 70 2.6 SW 15 22 8 12 1023.6 1023.6 0.0
27/02:30am 12.7 8.8 7.2 69 2.7 SSW 17 22 9 12 1023.8 1023.8 -
27/02:00am 12.8 9.0 7.7 71 2.5 SSW 17 24 9 13 1023.9 1023.9 -
27/01:30am 12.8 9.8 7.5 70 2.6 SSW 13 19 7 10 1023.9 1023.9 -
27/01:00am 12.9 9.5 7.6 70 2.6 SSW 15 20 8 11 1024.2 1024.2 -
27/12:30am 13.0 10.1 8.1 72 2.4 SW 13 20 7 11 1024.1 1024.1 -
27/12:00am 12.9 9.8 7.1 68 2.8 WSW 13 20 7 11 1024.3 1024.3 -
 
Date/Time
EDT
Temp
°C
App
Temp
°C
Dew
Point
Rel
Hum
%
Delta-T
°C
Wind Press
QNH
hPa
Press
MSL
hPa
Rain
since 9 am
mm
Dir
 
Spd
km/h
Gust
km/h
Spd
kts
Gust
kts
26/11:30pm 13.1 9.7 7.5 69 2.7 SW 15 22 8 12 1024.2 1024.2 -
26/11:00pm 12.8 8.8 6.8 67 2.9 SSW 17 24 9 13 1024.2 1024.2 -
26/10:30pm 13.1 9.6 7.3 68 2.8 SW 15 22 8 12 1024.2 1024.2 -
26/10:00pm 13.3 8.4 7.1 66 3.0 SW 22 30 12 16 1023.9 1023.9 -
26/09:30pm 13.3 9.1 7.5 68 2.8 SW 19 24 10 13 1023.6 1023.6 -
26/09:00pm 13.3 9.9 7.7 69 2.7 SSW 15 20 8 11 1023.4 1023.4 0.0
26/08:30pm 13.4 9.0 7.6 68 2.8 SSW 20 32 11 17 1023.3 1023.3 -
26/08:00pm 13.4 9.9 8.9 74 2.3 SW 17 20 9 11 1023.1 1023.1 -
26/07:30pm 13.7 9.8 8.7 72 2.5 SW 19 24 10 13 1022.8 1022.8 -
26/07:00pm 14.5 11.1 9.3 71 2.6 SW 17 22 9 12 1022.5 1022.5 -
26/06:30pm 14.7 10.7 9.1 69 2.9 SW 20 32 11 17 1022.1 1022.1 -
26/06:00pm 15.1 11.5 9.7 70 2.8 SW 19 30 10 16 1022.0 1022.0 -
26/05:30pm 15.3 11.5 9.9 70 2.8 SSW 20 28 11 15 1021.8 1021.8 -
26/05:00pm 15.6 12.0 10.6 72 2.6 SW 20 28 11 15 1021.7 1021.7 -
26/04:30pm 15.9 12.5 10.7 71 2.8 SW 19 26 10 14 1021.7 1021.7 -

Other Formats:

Comma delimited format used in spreadsheet applications
http://www.bom.gov.au/fwo/IDV60801/IDV60801.94886.axf

JavaScript Object Notation format (JSON) in row-major order
http://www.bom.gov.au/fwo/IDV60801/IDV60801.94886.json